sensor_id;sensor_type;location;lat;lon;timestamp;P1;durP1;ratioP1;P2;durP2;ratioP2
63046;SDS011;62025;39.238;9.126;2022-12-18T00:01:21;10.40;;;6.25;;
63046;SDS011;62025;39.238;9.126;2022-12-18T00:03:58;8.20;;;4.93;;
63046;SDS011;62025;39.238;9.126;2022-12-18T00:06:28;8.57;;;4.90;;
63046;SDS011;62025;39.238;9.126;2022-12-18T00:08:55;6.95;;;4.70;;
63046;SDS011;62025;39.238;9.126;2022-12-18T00:11:23;7.18;;;4.35;;
63046;SDS011;62025;39.238;9.126;2022-12-18T00:13:53;6.50;;;4.40;;
63046;SDS011;62025;39.238;9.126;2022-12-18T00:16:21;7.47;;;4.63;;
63046;SDS011;62025;39.238;9.126;2022-12-18T00:21:18;7.28;;;4.82;;
63046;SDS011;62025;39.238;9.126;2022-12-18T00:23:46;9.25;;;4.55;;
63046;SDS011;62025;39.238;9.126;2022-12-18T00:26:14;10.70;;;5.20;;
63046;SDS011;62025;39.238;9.126;2022-12-18T00:28:44;9.27;;;4.78;;
63046;SDS011;62025;39.238;9.126;2022-12-18T00:31:12;9.27;;;4.88;;
63046;SDS011;62025;39.238;9.126;2022-12-18T00:33:44;6.85;;;4.38;;
63046;SDS011;62025;39.238;9.126;2022-12-18T00:36:11;10.70;;;5.35;;
63046;SDS011;62025;39.238;9.126;2022-12-18T00:38:40;7.07;;;4.55;;
63046;SDS011;62025;39.238;9.126;2022-12-18T00:41:09;7.13;;;4.82;;
63046;SDS011;62025;39.238;9.126;2022-12-18T00:43:38;7.30;;;4.50;;
63046;SDS011;62025;39.238;9.126;2022-12-18T00:46:04;13.27;;;5.32;;
63046;SDS011;62025;39.238;9.126;2022-12-18T00:48:31;6.43;;;4.65;;
63046;SDS011;62025;39.238;9.126;2022-12-18T00:50:57;9.88;;;4.75;;
63046;SDS011;62025;39.238;9.126;2022-12-18T00:53:23;5.35;;;4.10;;
63046;SDS011;62025;39.238;9.126;2022-12-18T00:55:49;5.43;;;3.95;;
63046;SDS011;62025;39.238;9.126;2022-12-18T00:58:15;8.50;;;4.70;;
63046;SDS011;62025;39.238;9.126;2022-12-18T01:00:42;5.60;;;3.97;;
63046;SDS011;62025;39.238;9.126;2022-12-18T01:03:10;10.77;;;4.47;;
63046;SDS011;62025;39.238;9.126;2022-12-18T01:05:42;7.72;;;3.60;;
63046;SDS011;62025;39.238;9.126;2022-12-18T01:08:08;6.35;;;4.55;;
63046;SDS011;62025;39.238;9.126;2022-12-18T01:10:34;8.85;;;4.32;;
63046;SDS011;62025;39.238;9.126;2022-12-18T01:13:00;8.05;;;4.18;;
63046;SDS011;62025;39.238;9.126;2022-12-18T01:15:26;6.95;;;4.47;;
63046;SDS011;62025;39.238;9.126;2022-12-18T01:17:52;6.75;;;4.03;;
63046;SDS011;62025;39.238;9.126;2022-12-18T01:20:18;10.90;;;4.63;;
63046;SDS011;62025;39.238;9.126;2022-12-18T01:22:45;7.63;;;4.72;;
63046;SDS011;62025;39.238;9.126;2022-12-18T01:25:10;7.40;;;4.90;;
63046;SDS011;62025;39.238;9.126;2022-12-18T01:27:36;10.05;;;5.03;;
63046;SDS011;62025;39.238;9.126;2022-12-18T01:30:03;6.70;;;4.82;;
63046;SDS011;62025;39.238;9.126;2022-12-18T01:32:30;7.70;;;5.03;;
63046;SDS011;62025;39.238;9.126;2022-12-18T01:34:56;6.85;;;4.93;;
63046;SDS011;62025;39.238;9.126;2022-12-18T01:37:22;8.98;;;4.80;;
63046;SDS011;62025;39.238;9.126;2022-12-18T01:39:48;9.40;;;4.18;;
63046;SDS011;62025;39.238;9.126;2022-12-18T01:42:15;5.95;;;4.38;;
63046;SDS011;62025;39.238;9.126;2022-12-18T01:47:45;6.50;;;4.60;;
63046;SDS011;62025;39.238;9.126;2022-12-18T01:53:15;9.30;;;5.07;;
63046;SDS011;62025;39.238;9.126;2022-12-18T01:55:49;12.07;;;5.75;;
63046;SDS011;62025;39.238;9.126;2022-12-18T01:58:25;10.43;;;6.22;;
63046;SDS011;62025;39.238;9.126;2022-12-18T02:01:14;9.02;;;6.35;;
63046;SDS011;62025;39.238;9.126;2022-12-18T02:03:42;7.60;;;6.18;;
63046;SDS011;62025;39.238;9.126;2022-12-18T02:06:12;10.35;;;6.30;;
63046;SDS011;62025;39.238;9.126;2022-12-18T02:09:07;9.88;;;6.75;;
63046;SDS011;62025;39.238;9.126;2022-12-18T02:17:28;11.43;;;6.50;;
63046;SDS011;62025;39.238;9.126;2022-12-18T02:20:25;8.73;;;5.88;;
63046;SDS011;62025;39.238;9.126;2022-12-18T02:26:07;7.82;;;5.20;;
63046;SDS011;62025;39.238;9.126;2022-12-18T02:31:49;7.50;;;5.57;;
63046;SDS011;62025;39.238;9.126;2022-12-18T02:34:18;6.30;;;4.90;;
63046;SDS011;62025;39.238;9.126;2022-12-18T02:36:47;7.07;;;4.82;;
63046;SDS011;62025;39.238;9.126;2022-12-18T02:39:15;6.50;;;4.55;;
63046;SDS011;62025;39.238;9.126;2022-12-18T02:41:56;5.63;;;3.88;;
63046;SDS011;62025;39.238;9.126;2022-12-18T02:44:24;6.72;;;4.18;;
63046;SDS011;62025;39.238;9.126;2022-12-18T02:46:51;7.20;;;4.05;;
63046;SDS011;62025;39.238;9.126;2022-12-18T03:00:39;7.50;;;3.50;;
63046;SDS011;62025;39.238;9.126;2022-12-18T03:03:42;5.90;;;3.20;;
63046;SDS011;62025;39.238;9.126;2022-12-18T03:08:56;5.22;;;3.72;;
63046;SDS011;62025;39.238;9.126;2022-12-18T03:11:30;6.03;;;3.63;;
63046;SDS011;62025;39.238;9.126;2022-12-18T03:14:18;7.72;;;3.80;;
63046;SDS011;62025;39.238;9.126;2022-12-18T03:16:49;5.07;;;3.30;;
63046;SDS011;62025;39.238;9.126;2022-12-18T03:19:19;5.45;;;2.80;;
63046;SDS011;62025;39.238;9.126;2022-12-18T03:21:54;6.30;;;2.67;;
63046;SDS011;62025;39.238;9.126;2022-12-18T03:24:24;4.68;;;2.65;;
63046;SDS011;62025;39.238;9.126;2022-12-18T03:26:54;3.22;;;2.40;;
63046;SDS011;62025;39.238;9.126;2022-12-18T03:32:18;3.47;;;2.42;;
63046;SDS011;62025;39.238;9.126;2022-12-18T03:34:57;7.85;;;2.47;;
63046;SDS011;62025;39.238;9.126;2022-12-18T03:37:31;4.20;;;2.40;;
63046;SDS011;62025;39.238;9.126;2022-12-18T03:39:58;11.02;;;2.97;;
63046;SDS011;62025;39.238;9.126;2022-12-18T03:45:13;4.45;;;3.00;;
63046;SDS011;62025;39.238;9.126;2022-12-18T03:48:03;5.43;;;2.90;;
63046;SDS011;62025;39.238;9.126;2022-12-18T03:54:04;7.30;;;3.20;;
63046;SDS011;62025;39.238;9.126;2022-12-18T03:56:40;7.03;;;3.33;;
63046;SDS011;62025;39.238;9.126;2022-12-18T03:59:14;12.95;;;3.83;;
63046;SDS011;62025;39.238;9.126;2022-12-18T04:01:46;5.88;;;3.38;;
63046;SDS011;62025;39.238;9.126;2022-12-18T04:04:16;5.80;;;3.40;;
63046;SDS011;62025;39.238;9.126;2022-12-18T04:06:44;5.27;;;3.27;;
63046;SDS011;62025;39.238;9.126;2022-12-18T04:09:13;7.55;;;3.33;;
63046;SDS011;62025;39.238;9.126;2022-12-18T04:11:43;6.03;;;3.22;;
63046;SDS011;62025;39.238;9.126;2022-12-18T04:14:11;6.88;;;3.40;;
63046;SDS011;62025;39.238;9.126;2022-12-18T04:16:38;5.63;;;3.33;;
63046;SDS011;62025;39.238;9.126;2022-12-18T04:19:07;6.93;;;3.45;;
63046;SDS011;62025;39.238;9.126;2022-12-18T04:21:38;6.70;;;3.80;;
63046;SDS011;62025;39.238;9.126;2022-12-18T04:24:05;5.70;;;3.47;;
63046;SDS011;62025;39.238;9.126;2022-12-18T04:26:33;6.82;;;4.00;;
63046;SDS011;62025;39.238;9.126;2022-12-18T04:29:15;5.50;;;4.30;;
63046;SDS011;62025;39.238;9.126;2022-12-18T04:31:41;7.72;;;4.50;;
63046;SDS011;62025;39.238;9.126;2022-12-18T04:34:08;7.13;;;4.25;;
63046;SDS011;62025;39.238;9.126;2022-12-18T04:36:40;7.25;;;4.40;;
63046;SDS011;62025;39.238;9.126;2022-12-18T04:39:06;8.38;;;4.38;;
63046;SDS011;62025;39.238;9.126;2022-12-18T04:41:34;6.85;;;4.68;;
63046;SDS011;62025;39.238;9.126;2022-12-18T04:44:01;5.85;;;4.00;;
63046;SDS011;62025;39.238;9.126;2022-12-18T04:46:27;6.20;;;4.55;;
63046;SDS011;62025;39.238;9.126;2022-12-18T04:48:53;6.63;;;4.47;;
63046;SDS011;62025;39.238;9.126;2022-12-18T04:51:19;8.95;;;4.35;;
63046;SDS011;62025;39.238;9.126;2022-12-18T04:53:45;10.73;;;4.50;;
63046;SDS011;62025;39.238;9.126;2022-12-18T04:56:12;9.50;;;4.55;;
63046;SDS011;62025;39.238;9.126;2022-12-18T04:58:40;10.65;;;4.57;;
63046;SDS011;62025;39.238;9.126;2022-12-18T05:01:09;6.65;;;4.45;;
63046;SDS011;62025;39.238;9.126;2022-12-18T05:03:36;5.95;;;4.22;;
63046;SDS011;62025;39.238;9.126;2022-12-18T05:06:03;6.97;;;4.68;;
63046;SDS011;62025;39.238;9.126;2022-12-18T05:08:30;6.90;;;4.57;;
63046;SDS011;62025;39.238;9.126;2022-12-18T05:11:04;8.30;;;4.57;;
63046;SDS011;62025;39.238;9.126;2022-12-18T05:13:35;6.82;;;4.75;;
63046;SDS011;62025;39.238;9.126;2022-12-18T05:16:03;6.22;;;4.25;;
63046;SDS011;62025;39.238;9.126;2022-12-18T05:18:30;6.97;;;4.30;;
63046;SDS011;62025;39.238;9.126;2022-12-18T05:20:56;6.00;;;4.65;;
63046;SDS011;62025;39.238;9.126;2022-12-18T05:23:23;4.88;;;4.25;;
63046;SDS011;62025;39.238;9.126;2022-12-18T05:25:51;5.63;;;4.28;;
63046;SDS011;62025;39.238;9.126;2022-12-18T05:28:23;6.97;;;4.43;;
63046;SDS011;62025;39.238;9.126;2022-12-18T05:30:52;5.35;;;4.55;;
63046;SDS011;62025;39.238;9.126;2022-12-18T05:33:22;6.97;;;4.28;;
63046;SDS011;62025;39.238;9.126;2022-12-18T05:35:51;6.25;;;4.80;;
63046;SDS011;62025;39.238;9.126;2022-12-18T05:38:23;8.45;;;4.65;;
63046;SDS011;62025;39.238;9.126;2022-12-18T05:40:50;8.35;;;4.80;;
63046;SDS011;62025;39.238;9.126;2022-12-18T05:43:17;8.50;;;4.70;;
63046;SDS011;62025;39.238;9.126;2022-12-18T05:45:44;8.23;;;4.85;;
63046;SDS011;62025;39.238;9.126;2022-12-18T05:48:10;6.38;;;4.25;;
63046;SDS011;62025;39.238;9.126;2022-12-18T05:50:38;8.38;;;4.90;;
63046;SDS011;62025;39.238;9.126;2022-12-18T05:53:06;5.68;;;4.20;;
63046;SDS011;62025;39.238;9.126;2022-12-18T05:55:33;5.72;;;4.65;;
63046;SDS011;62025;39.238;9.126;2022-12-18T05:58:04;6.38;;;4.63;;
63046;SDS011;62025;39.238;9.126;2022-12-18T06:00:32;5.40;;;4.35;;
63046;SDS011;62025;39.238;9.126;2022-12-18T06:03:00;6.45;;;4.65;;
63046;SDS011;62025;39.238;9.126;2022-12-18T06:05:27;7.75;;;4.57;;
63046;SDS011;62025;39.238;9.126;2022-12-18T06:07:53;6.53;;;4.35;;
63046;SDS011;62025;39.238;9.126;2022-12-18T06:10:19;7.25;;;4.43;;
63046;SDS011;62025;39.238;9.126;2022-12-18T06:12:45;7.88;;;5.95;;
63046;SDS011;62025;39.238;9.126;2022-12-18T06:15:11;7.15;;;4.90;;
63046;SDS011;62025;39.238;9.126;2022-12-18T06:17:37;8.20;;;4.20;;
63046;SDS011;62025;39.238;9.126;2022-12-18T06:20:03;5.63;;;4.32;;
63046;SDS011;62025;39.238;9.126;2022-12-18T06:22:31;7.95;;;4.50;;
63046;SDS011;62025;39.238;9.126;2022-12-18T06:24:57;7.03;;;4.50;;
63046;SDS011;62025;39.238;9.126;2022-12-18T06:27:24;5.90;;;4.00;;
63046;SDS011;62025;39.238;9.126;2022-12-18T06:29:50;4.57;;;3.67;;
63046;SDS011;62025;39.238;9.126;2022-12-18T06:32:16;8.13;;;4.40;;
63046;SDS011;62025;39.238;9.126;2022-12-18T06:34:42;6.78;;;4.55;;
63046;SDS011;62025;39.238;9.126;2022-12-18T06:37:08;6.93;;;4.55;;
63046;SDS011;62025;39.238;9.126;2022-12-18T06:39:34;8.35;;;4.50;;
63046;SDS011;62025;39.238;9.126;2022-12-18T06:42:00;9.57;;;4.50;;
63046;SDS011;62025;39.238;9.126;2022-12-18T06:44:26;6.70;;;4.30;;
63046;SDS011;62025;39.238;9.126;2022-12-18T06:46:52;5.90;;;4.13;;
63046;SDS011;62025;39.238;9.126;2022-12-18T06:49:18;5.50;;;3.78;;
63046;SDS011;62025;39.238;9.126;2022-12-18T06:51:44;5.80;;;4.57;;
63046;SDS011;62025;39.238;9.126;2022-12-18T06:54:09;6.43;;;4.45;;
63046;SDS011;62025;39.238;9.126;2022-12-18T06:56:35;6.20;;;4.28;;
63046;SDS011;62025;39.238;9.126;2022-12-18T06:59:01;7.03;;;4.10;;
63046;SDS011;62025;39.238;9.126;2022-12-18T07:01:28;6.20;;;3.90;;
63046;SDS011;62025;39.238;9.126;2022-12-18T07:03:54;5.55;;;3.80;;
63046;SDS011;62025;39.238;9.126;2022-12-18T07:06:22;4.30;;;3.38;;
63046;SDS011;62025;39.238;9.126;2022-12-18T07:08:50;5.20;;;3.13;;
63046;SDS011;62025;39.238;9.126;2022-12-18T07:11:18;4.72;;;3.50;;
63046;SDS011;62025;39.238;9.126;2022-12-18T07:13:44;7.43;;;3.33;;
63046;SDS011;62025;39.238;9.126;2022-12-18T07:16:12;4.65;;;3.25;;
63046;SDS011;62025;39.238;9.126;2022-12-18T07:18:43;8.32;;;3.65;;
63046;SDS011;62025;39.238;9.126;2022-12-18T07:21:11;5.95;;;3.28;;
63046;SDS011;62025;39.238;9.126;2022-12-18T07:23:40;4.70;;;3.40;;
63046;SDS011;62025;39.238;9.126;2022-12-18T07:26:07;4.82;;;3.35;;
63046;SDS011;62025;39.238;9.126;2022-12-18T07:28:38;4.18;;;3.45;;
63046;SDS011;62025;39.238;9.126;2022-12-18T07:31:10;3.53;;;3.00;;
63046;SDS011;62025;39.238;9.126;2022-12-18T07:33:42;5.68;;;3.00;;
63046;SDS011;62025;39.238;9.126;2022-12-18T07:36:10;4.70;;;2.85;;
63046;SDS011;62025;39.238;9.126;2022-12-18T07:38:36;3.33;;;2.50;;
63046;SDS011;62025;39.238;9.126;2022-12-18T07:41:03;4.97;;;2.97;;
63046;SDS011;62025;39.238;9.126;2022-12-18T07:43:32;4.50;;;3.05;;
63046;SDS011;62025;39.238;9.126;2022-12-18T07:45:59;6.22;;;2.80;;
63046;SDS011;62025;39.238;9.126;2022-12-18T07:48:25;3.20;;;2.60;;
63046;SDS011;62025;39.238;9.126;2022-12-18T07:50:51;5.68;;;2.80;;
63046;SDS011;62025;39.238;9.126;2022-12-18T07:53:17;9.45;;;3.40;;
63046;SDS011;62025;39.238;9.126;2022-12-18T07:55:43;4.85;;;2.80;;
63046;SDS011;62025;39.238;9.126;2022-12-18T07:58:09;4.85;;;2.90;;
63046;SDS011;62025;39.238;9.126;2022-12-18T08:00:35;7.60;;;3.10;;
63046;SDS011;62025;39.238;9.126;2022-12-18T08:03:01;5.93;;;3.05;;
63046;SDS011;62025;39.238;9.126;2022-12-18T08:05:27;3.60;;;2.90;;
63046;SDS011;62025;39.238;9.126;2022-12-18T08:07:54;4.95;;;2.60;;
63046;SDS011;62025;39.238;9.126;2022-12-18T08:10:21;3.50;;;2.72;;
63046;SDS011;62025;39.238;9.126;2022-12-18T08:12:50;3.65;;;2.80;;
63046;SDS011;62025;39.238;9.126;2022-12-18T08:15:17;5.32;;;3.00;;
63046;SDS011;62025;39.238;9.126;2022-12-18T08:17:43;3.00;;;2.50;;
63046;SDS011;62025;39.238;9.126;2022-12-18T08:20:09;3.63;;;2.70;;
63046;SDS011;62025;39.238;9.126;2022-12-18T08:22:35;3.78;;;2.75;;
63046;SDS011;62025;39.238;9.126;2022-12-18T08:25:02;3.97;;;2.63;;
63046;SDS011;62025;39.238;9.126;2022-12-18T08:27:29;5.97;;;2.83;;
63046;SDS011;62025;39.238;9.126;2022-12-18T08:29:56;3.80;;;2.70;;
63046;SDS011;62025;39.238;9.126;2022-12-18T08:32:23;10.35;;;3.63;;
63046;SDS011;62025;39.238;9.126;2022-12-18T08:34:50;4.60;;;2.90;;
63046;SDS011;62025;39.238;9.126;2022-12-18T08:37:16;4.90;;;2.88;;
63046;SDS011;62025;39.238;9.126;2022-12-18T08:39:42;4.00;;;2.70;;
63046;SDS011;62025;39.238;9.126;2022-12-18T08:42:08;4.78;;;3.63;;
63046;SDS011;62025;39.238;9.126;2022-12-18T08:44:52;5.55;;;3.00;;
63046;SDS011;62025;39.238;9.126;2022-12-18T08:47:18;6.25;;;3.28;;
63046;SDS011;62025;39.238;9.126;2022-12-18T08:49:44;8.75;;;3.72;;
63046;SDS011;62025;39.238;9.126;2022-12-18T08:52:10;5.93;;;3.60;;
63046;SDS011;62025;39.238;9.126;2022-12-18T08:54:36;5.85;;;2.90;;
63046;SDS011;62025;39.238;9.126;2022-12-18T08:57:02;3.58;;;3.17;;
63046;SDS011;62025;39.238;9.126;2022-12-18T08:59:28;3.25;;;2.60;;
63046;SDS011;62025;39.238;9.126;2022-12-18T09:01:54;4.22;;;2.83;;
63046;SDS011;62025;39.238;9.126;2022-12-18T09:04:20;3.00;;;2.42;;
63046;SDS011;62025;39.238;9.126;2022-12-18T09:06:47;8.38;;;2.75;;
63046;SDS011;62025;39.238;9.126;2022-12-18T09:09:13;4.80;;;2.53;;
63046;SDS011;62025;39.238;9.126;2022-12-18T09:11:39;5.15;;;2.75;;
63046;SDS011;62025;39.238;9.126;2022-12-18T09:14:05;7.88;;;3.00;;
63046;SDS011;62025;39.238;9.126;2022-12-18T09:16:31;4.57;;;2.90;;
63046;SDS011;62025;39.238;9.126;2022-12-18T09:19:00;6.28;;;2.90;;
63046;SDS011;62025;39.238;9.126;2022-12-18T09:21:29;7.20;;;3.10;;
63046;SDS011;62025;39.238;9.126;2022-12-18T09:23:57;7.60;;;3.40;;
63046;SDS011;62025;39.238;9.126;2022-12-18T09:26:24;4.28;;;3.35;;
63046;SDS011;62025;39.238;9.126;2022-12-18T09:28:51;9.32;;;5.30;;
63046;SDS011;62025;39.238;9.126;2022-12-18T09:31:18;10.05;;;6.30;;
63046;SDS011;62025;39.238;9.126;2022-12-18T09:36:13;9.57;;;6.43;;
63046;SDS011;62025;39.238;9.126;2022-12-18T09:38:41;7.97;;;5.88;;
63046;SDS011;62025;39.238;9.126;2022-12-18T09:41:27;10.23;;;5.18;;
63046;SDS011;62025;39.238;9.126;2022-12-18T09:46:38;7.10;;;3.88;;
63046;SDS011;62025;39.238;9.126;2022-12-18T09:49:12;6.13;;;4.20;;
63046;SDS011;62025;39.238;9.126;2022-12-18T09:51:47;6.32;;;4.50;;
63046;SDS011;62025;39.238;9.126;2022-12-18T09:54:35;9.85;;;6.35;;
63046;SDS011;62025;39.238;9.126;2022-12-18T09:57:13;9.57;;;6.05;;
63046;SDS011;62025;39.238;9.126;2022-12-18T09:59:44;6.72;;;5.10;;
63046;SDS011;62025;39.238;9.126;2022-12-18T10:02:21;5.88;;;3.55;;
63046;SDS011;62025;39.238;9.126;2022-12-18T10:10:38;5.43;;;4.20;;
63046;SDS011;62025;39.238;9.126;2022-12-18T10:13:15;9.02;;;4.75;;
63046;SDS011;62025;39.238;9.126;2022-12-18T10:21:36;7.65;;;5.20;;
63046;SDS011;62025;39.238;9.126;2022-12-18T10:26:43;10.60;;;5.88;;
63046;SDS011;62025;39.238;9.126;2022-12-18T10:29:13;8.77;;;6.47;;
63046;SDS011;62025;39.238;9.126;2022-12-18T10:31:41;11.20;;;7.45;;
63046;SDS011;62025;39.238;9.126;2022-12-18T10:34:11;14.80;;;7.85;;
63046;SDS011;62025;39.238;9.126;2022-12-18T10:36:39;13.43;;;7.88;;
63046;SDS011;62025;39.238;9.126;2022-12-18T10:39:19;14.00;;;8.90;;
63046;SDS011;62025;39.238;9.126;2022-12-18T10:41:48;15.13;;;9.13;;
63046;SDS011;62025;39.238;9.126;2022-12-18T10:44:23;13.05;;;9.05;;
63046;SDS011;62025;39.238;9.126;2022-12-18T10:47:04;10.07;;;6.70;;
63046;SDS011;62025;39.238;9.126;2022-12-18T10:49:37;7.00;;;5.03;;
63046;SDS011;62025;39.238;9.126;2022-12-18T10:52:23;4.78;;;3.72;;
63046;SDS011;62025;39.238;9.126;2022-12-18T10:54:52;10.52;;;4.07;;
63046;SDS011;62025;39.238;9.126;2022-12-18T11:00:20;6.72;;;4.07;;
63046;SDS011;62025;39.238;9.126;2022-12-18T11:02:56;6.25;;;4.22;;
63046;SDS011;62025;39.238;9.126;2022-12-18T11:05:26;7.57;;;4.07;;
63046;SDS011;62025;39.238;9.126;2022-12-18T11:07:53;4.93;;;3.35;;
63046;SDS011;62025;39.238;9.126;2022-12-18T11:10:20;5.38;;;3.63;;
63046;SDS011;62025;39.238;9.126;2022-12-18T11:12:50;6.85;;;3.45;;
63046;SDS011;62025;39.238;9.126;2022-12-18T11:15:21;7.93;;;4.00;;
63046;SDS011;62025;39.238;9.126;2022-12-18T11:17:53;8.20;;;4.00;;
63046;SDS011;62025;39.238;9.126;2022-12-18T11:20:37;8.43;;;3.67;;
63046;SDS011;62025;39.238;9.126;2022-12-18T11:23:04;5.97;;;3.17;;
63046;SDS011;62025;39.238;9.126;2022-12-18T11:25:38;3.45;;;2.92;;
63046;SDS011;62025;39.238;9.126;2022-12-18T11:28:08;7.25;;;4.25;;
63046;SDS011;62025;39.238;9.126;2022-12-18T11:33:44;4.82;;;3.42;;
63046;SDS011;62025;39.238;9.126;2022-12-18T11:36:32;5.07;;;2.85;;
63046;SDS011;62025;39.238;9.126;2022-12-18T11:39:24;3.50;;;2.70;;
63046;SDS011;62025;39.238;9.126;2022-12-18T11:44:54;3.38;;;2.50;;
63046;SDS011;62025;39.238;9.126;2022-12-18T11:47:49;7.03;;;2.90;;
63046;SDS011;62025;39.238;9.126;2022-12-18T11:53:19;3.08;;;2.10;;
63046;SDS011;62025;39.238;9.126;2022-12-18T11:56:06;3.25;;;2.35;;
63046;SDS011;62025;39.238;9.126;2022-12-18T11:59:24;3.85;;;2.38;;
63046;SDS011;62025;39.238;9.126;2022-12-18T12:11:33;6.38;;;3.30;;
63046;SDS011;62025;39.238;9.126;2022-12-18T12:14:32;5.43;;;2.40;;
63046;SDS011;62025;39.238;9.126;2022-12-18T12:17:38;7.90;;;2.78;;
63046;SDS011;62025;39.238;9.126;2022-12-18T12:26:10;7.05;;;4.28;;
63046;SDS011;62025;39.238;9.126;2022-12-18T12:40:18;5.18;;;3.60;;
63046;SDS011;62025;39.238;9.126;2022-12-18T12:43:33;4.68;;;2.95;;
63046;SDS011;62025;39.238;9.126;2022-12-18T12:46:00;3.00;;;2.70;;
63046;SDS011;62025;39.238;9.126;2022-12-18T12:48:48;3.83;;;2.40;;
63046;SDS011;62025;39.238;9.126;2022-12-18T12:53:44;4.80;;;1.90;;
63046;SDS011;62025;39.238;9.126;2022-12-18T12:56:11;3.70;;;2.20;;
63046;SDS011;62025;39.238;9.126;2022-12-18T13:01:58;5.53;;;3.00;;
63046;SDS011;62025;39.238;9.126;2022-12-18T13:04:52;5.90;;;2.72;;
63046;SDS011;62025;39.238;9.126;2022-12-18T13:07:50;3.72;;;2.08;;
63046;SDS011;62025;39.238;9.126;2022-12-18T13:10:25;4.13;;;1.83;;
63046;SDS011;62025;39.238;9.126;2022-12-18T13:16:04;5.20;;;2.60;;
63046;SDS011;62025;39.238;9.126;2022-12-18T13:18:31;6.10;;;2.40;;
63046;SDS011;62025;39.238;9.126;2022-12-18T13:31:11;7.35;;;5.45;;
63046;SDS011;62025;39.238;9.126;2022-12-18T13:36:54;18.38;;;10.65;;
63046;SDS011;62025;39.238;9.126;2022-12-18T13:39:42;11.50;;;8.45;;
63046;SDS011;62025;39.238;9.126;2022-12-18T13:44:35;7.05;;;5.32;;
63046;SDS011;62025;39.238;9.126;2022-12-18T13:49:56;3.38;;;2.17;;
63046;SDS011;62025;39.238;9.126;2022-12-18T13:52:24;4.97;;;2.20;;
63046;SDS011;62025;39.238;9.126;2022-12-18T13:54:59;3.83;;;2.17;;
63046;SDS011;62025;39.238;9.126;2022-12-18T13:59:59;3.60;;;2.00;;
63046;SDS011;62025;39.238;9.126;2022-12-18T14:02:46;3.75;;;1.90;;
63046;SDS011;62025;39.238;9.126;2022-12-18T14:05:30;2.38;;;1.67;;
63046;SDS011;62025;39.238;9.126;2022-12-18T14:08:00;1.92;;;1.40;;
63046;SDS011;62025;39.238;9.126;2022-12-18T14:10:30;2.92;;;1.40;;
63046;SDS011;62025;39.238;9.126;2022-12-18T14:12:57;1.85;;;1.20;;
63046;SDS011;62025;39.238;9.126;2022-12-18T14:15:32;3.25;;;2.05;;
63046;SDS011;62025;39.238;9.126;2022-12-18T14:20:54;1.55;;;1.35;;
63046;SDS011;62025;39.238;9.126;2022-12-18T14:23:37;1.73;;;1.40;;
63046;SDS011;62025;39.238;9.126;2022-12-18T14:29:22;4.13;;;1.55;;
63046;SDS011;62025;39.238;9.126;2022-12-18T14:32:07;1.95;;;1.35;;
63046;SDS011;62025;39.238;9.126;2022-12-18T14:34:39;2.28;;;1.20;;
63046;SDS011;62025;39.238;9.126;2022-12-18T14:37:05;3.58;;;1.13;;
63046;SDS011;62025;39.238;9.126;2022-12-18T14:39:35;3.50;;;1.30;;
63046;SDS011;62025;39.238;9.126;2022-12-18T14:42:01;4.75;;;1.60;;
63046;SDS011;62025;39.238;9.126;2022-12-18T14:44:27;1.88;;;1.60;;
63046;SDS011;62025;39.238;9.126;2022-12-18T14:46:53;4.45;;;1.52;;
63046;SDS011;62025;39.238;9.126;2022-12-18T14:54:24;1.70;;;1.40;;
63046;SDS011;62025;39.238;9.126;2022-12-18T14:59:51;4.72;;;1.67;;
63046;SDS011;62025;39.238;9.126;2022-12-18T15:02:27;1.65;;;1.50;;
63046;SDS011;62025;39.238;9.126;2022-12-18T15:10:24;4.28;;;1.65;;
63046;SDS011;62025;39.238;9.126;2022-12-18T15:18:05;5.90;;;1.80;;
63046;SDS011;62025;39.238;9.126;2022-12-18T15:23:16;2.78;;;1.70;;
63046;SDS011;62025;39.238;9.126;2022-12-18T15:25:57;3.17;;;1.65;;
63046;SDS011;62025;39.238;9.126;2022-12-18T15:28:36;3.42;;;1.75;;
63046;SDS011;62025;39.238;9.126;2022-12-18T15:33:44;4.53;;;2.05;;
63046;SDS011;62025;39.238;9.126;2022-12-18T15:39:01;3.03;;;2.00;;
63046;SDS011;62025;39.238;9.126;2022-12-18T15:41:30;7.10;;;2.42;;
63046;SDS011;62025;39.238;9.126;2022-12-18T15:43:58;3.90;;;1.90;;
63046;SDS011;62025;39.238;9.126;2022-12-18T15:46:24;5.03;;;1.90;;
63046;SDS011;62025;39.238;9.126;2022-12-18T15:48:55;3.03;;;1.80;;
63046;SDS011;62025;39.238;9.126;2022-12-18T15:51:23;4.57;;;2.35;;
63046;SDS011;62025;39.238;9.126;2022-12-18T15:53:58;10.65;;;3.17;;
63046;SDS011;62025;39.238;9.126;2022-12-18T15:56:26;7.28;;;3.70;;
63046;SDS011;62025;39.238;9.126;2022-12-18T15:59:12;5.85;;;2.60;;
63046;SDS011;62025;39.238;9.126;2022-12-18T16:01:44;7.30;;;3.45;;
63046;SDS011;62025;39.238;9.126;2022-12-18T16:04:16;3.70;;;2.55;;
63046;SDS011;62025;39.238;9.126;2022-12-18T16:06:47;4.10;;;2.55;;
63046;SDS011;62025;39.238;9.126;2022-12-18T16:09:14;4.25;;;2.75;;
63046;SDS011;62025;39.238;9.126;2022-12-18T16:11:41;5.13;;;2.80;;
63046;SDS011;62025;39.238;9.126;2022-12-18T16:14:19;4.15;;;2.60;;
63046;SDS011;62025;39.238;9.126;2022-12-18T16:16:50;4.18;;;2.90;;
63046;SDS011;62025;39.238;9.126;2022-12-18T16:19:22;5.32;;;2.60;;
63046;SDS011;62025;39.238;9.126;2022-12-18T16:21:50;5.70;;;2.72;;
63046;SDS011;62025;39.238;9.126;2022-12-18T16:24:18;5.13;;;2.63;;
63046;SDS011;62025;39.238;9.126;2022-12-18T16:26:47;5.88;;;2.65;;
63046;SDS011;62025;39.238;9.126;2022-12-18T16:29:16;4.57;;;2.33;;
63046;SDS011;62025;39.238;9.126;2022-12-18T16:31:43;3.63;;;2.55;;
63046;SDS011;62025;39.238;9.126;2022-12-18T16:34:18;6.25;;;2.80;;
63046;SDS011;62025;39.238;9.126;2022-12-18T16:36:54;6.90;;;2.90;;
63046;SDS011;62025;39.238;9.126;2022-12-18T16:39:26;8.73;;;3.67;;
63046;SDS011;62025;39.238;9.126;2022-12-18T16:41:52;8.73;;;3.35;;
63046;SDS011;62025;39.238;9.126;2022-12-18T16:44:19;6.90;;;4.03;;
63046;SDS011;62025;39.238;9.126;2022-12-18T16:46:45;5.47;;;3.45;;
63046;SDS011;62025;39.238;9.126;2022-12-18T16:49:12;6.22;;;3.10;;
63046;SDS011;62025;39.238;9.126;2022-12-18T16:51:43;5.45;;;2.78;;
63046;SDS011;62025;39.238;9.126;2022-12-18T16:54:10;4.90;;;2.03;;
63046;SDS011;62025;39.238;9.126;2022-12-18T16:56:37;4.15;;;2.30;;
63046;SDS011;62025;39.238;9.126;2022-12-18T16:59:04;4.43;;;2.35;;
63046;SDS011;62025;39.238;9.126;2022-12-18T17:01:31;3.45;;;2.20;;
63046;SDS011;62025;39.238;9.126;2022-12-18T17:04:01;3.53;;;2.20;;
63046;SDS011;62025;39.238;9.126;2022-12-18T17:06:31;4.88;;;2.08;;
63046;SDS011;62025;39.238;9.126;2022-12-18T17:09:01;6.10;;;2.55;;
63046;SDS011;62025;39.238;9.126;2022-12-18T17:11:31;4.72;;;2.50;;
63046;SDS011;62025;39.238;9.126;2022-12-18T17:13:59;7.20;;;2.70;;
63046;SDS011;62025;39.238;9.126;2022-12-18T17:16:31;7.13;;;2.50;;
63046;SDS011;62025;39.238;9.126;2022-12-18T17:18:58;4.18;;;2.42;;
63046;SDS011;62025;39.238;9.126;2022-12-18T17:21:24;3.17;;;2.30;;
63046;SDS011;62025;39.238;9.126;2022-12-18T17:23:50;4.82;;;2.80;;
63046;SDS011;62025;39.238;9.126;2022-12-18T17:26:15;4.97;;;2.80;;
63046;SDS011;62025;39.238;9.126;2022-12-18T17:28:42;23.13;;;8.80;;
63046;SDS011;62025;39.238;9.126;2022-12-18T17:31:21;22.08;;;14.07;;
63046;SDS011;62025;39.238;9.126;2022-12-18T17:33:48;23.48;;;16.13;;
63046;SDS011;62025;39.238;9.126;2022-12-18T17:36:15;23.77;;;18.05;;
63046;SDS011;62025;39.238;9.126;2022-12-18T17:38:41;34.38;;;24.88;;
63046;SDS011;62025;39.238;9.126;2022-12-18T17:41:09;37.60;;;29.35;;
63046;SDS011;62025;39.238;9.126;2022-12-18T17:43:36;34.03;;;25.88;;
63046;SDS011;62025;39.238;9.126;2022-12-18T17:46:10;37.40;;;28.67;;
63046;SDS011;62025;39.238;9.126;2022-12-18T17:48:38;40.92;;;30.38;;
63046;SDS011;62025;39.238;9.126;2022-12-18T17:51:06;37.42;;;27.50;;